createdAt,value
2022-08-08T00:00:53.090Z,3.80
2022-08-08T00:02:50.040Z,3.40
2022-08-08T00:05:21.641Z,3.37
2022-08-08T00:08:12.933Z,3.50
2022-08-08T00:10:45.431Z,3.37
2022-08-08T00:13:21.029Z,3.40
2022-08-08T00:16:11.580Z,3.17
2022-08-08T00:18:42.047Z,3.57
2022-08-08T00:21:10.517Z,3.30
2022-08-08T00:23:51.426Z,3.00
2022-08-08T00:26:29.077Z,3.70
2022-08-08T00:29:01.422Z,3.40
2022-08-08T00:32:19.911Z,3.50
2022-08-08T00:34:48.710Z,3.53
2022-08-08T00:37:48.148Z,3.40
2022-08-08T00:41:07.670Z,3.40
2022-08-08T00:43:19.816Z,3.60
2022-08-08T00:45:56.583Z,3.50
2022-08-08T00:48:41.874Z,3.50
2022-08-08T00:51:51.040Z,3.23
2022-08-08T00:54:29.289Z,3.90
2022-08-08T00:57:19.650Z,3.67
2022-08-08T01:00:06.691Z,4.37
2022-08-08T01:03:59.823Z,4.20
2022-08-08T01:06:00.811Z,4.23
2022-08-08T01:08:54.006Z,3.97
2022-08-08T01:11:44.095Z,4.37
2022-08-08T01:14:53.438Z,4.10
2022-08-08T01:17:53.933Z,3.60
2022-08-08T01:20:37.469Z,3.50
2022-08-08T01:24:02.353Z,3.30
2022-08-08T01:26:17.156Z,3.40
2022-08-08T01:29:05.753Z,3.37
2022-08-08T01:32:13.797Z,3.10
2022-08-08T01:34:56.884Z,3.50
2022-08-08T01:37:57.774Z,3.33
2022-08-08T01:40:31.725Z,3.40
2022-08-08T01:43:03.780Z,3.37
2022-08-08T01:45:54.256Z,3.20
2022-08-08T01:48:31.469Z,3.00
2022-08-08T01:51:17.046Z,3.20
2022-08-08T01:55:17.325Z,2.90
2022-08-08T01:56:47.323Z,2.97
2022-08-08T01:59:21.053Z,3.30
2022-08-08T02:02:03.040Z,3.00
2022-08-08T02:04:34.696Z,3.13
2022-08-08T02:07:06.670Z,2.90
2022-08-08T02:10:03.345Z,3.23
2022-08-08T02:12:30.668Z,3.20
2022-08-08T02:15:02.961Z,3.33
2022-08-08T02:17:42.554Z,3.10
2022-08-08T02:21:01.821Z,3.10
2022-08-08T02:23:05.271Z,3.30
2022-08-08T02:25:47.137Z,3.10
2022-08-08T02:28:18.898Z,3.33
2022-08-08T02:30:49.719Z,3.60
2022-08-08T02:34:00.109Z,3.23
2022-08-08T02:36:16.472Z,3.30
2022-08-08T02:38:51.880Z,3.47
2022-08-08T02:42:04.236Z,3.10
2022-08-08T02:44:38.438Z,3.13
2022-08-08T02:47:51.993Z,3.70
2022-08-08T02:50:31.147Z,3.40
2022-08-08T02:53:07.580Z,3.50
2022-08-08T02:55:59.847Z,3.67
2022-08-08T02:59:17.269Z,3.60
2022-08-08T03:02:04.479Z,3.40
2022-08-08T03:05:05.457Z,3.47
2022-08-08T03:07:57.643Z,3.40
2022-08-08T03:10:44.612Z,3.97
2022-08-08T03:16:02.682Z,3.40
2022-08-08T03:16:37.700Z,3.87
2022-08-08T03:19:22.460Z,3.50
2022-08-08T03:21:58.788Z,3.13
2022-08-08T03:24:29.781Z,3.47
2022-08-08T03:26:59.108Z,3.50
2022-08-08T03:29:51.352Z,3.37
2022-08-08T03:32:35.599Z,4.00
2022-08-08T03:35:10.289Z,3.97
2022-08-08T03:38:53.156Z,4.03
2022-08-08T03:40:29.389Z,3.80
2022-08-08T03:43:16.876Z,3.70
2022-08-08T03:46:06.781Z,3.50
2022-08-08T03:49:38.100Z,3.83
2022-08-08T03:51:40.411Z,3.57
2022-08-08T03:54:15.526Z,3.73
2022-08-08T03:58:30.721Z,3.43
2022-08-08T04:00:03.015Z,3.37
2022-08-08T04:02:51.590Z,3.80
2022-08-08T04:05:28.019Z,3.30
2022-08-08T04:07:57.982Z,3.37
2022-08-08T04:10:32.360Z,3.60
2022-08-08T04:13:03.785Z,3.90
2022-08-08T04:16:03.783Z,3.73
2022-08-08T04:18:39.341Z,3.60
2022-08-08T04:21:13.170Z,3.63
2022-08-08T04:24:12.280Z,4.20
2022-08-08T04:26:40.018Z,3.60
2022-08-08T04:29:20.051Z,3.67
2022-08-08T04:31:58.635Z,4.40
2022-08-08T04:34:32.364Z,3.63
2022-08-08T04:37:17.086Z,3.90
2022-08-08T04:40:05.664Z,3.67
2022-08-08T04:42:37.209Z,3.47
2022-08-08T04:45:08.203Z,3.70
2022-08-08T04:47:43.441Z,3.80
2022-08-08T04:50:25.529Z,4.47
2022-08-08T04:53:00.761Z,3.70
2022-08-08T04:55:47.434Z,4.43
2022-08-08T04:58:22.517Z,4.30
2022-08-08T05:00:52.413Z,4.10
2022-08-08T05:04:09.033Z,4.50
2022-08-08T05:06:12.934Z,3.87
2022-08-08T05:08:42.724Z,4.03
2022-08-08T05:11:18.622Z,3.70
2022-08-08T05:13:54.900Z,4.73
2022-08-08T05:16:54.650Z,4.50
2022-08-08T05:20:09.994Z,4.53
2022-08-08T05:22:05.285Z,4.40
2022-08-08T05:24:37.431Z,3.87
2022-08-08T05:27:06.325Z,4.50
2022-08-08T05:29:35.941Z,4.00
2022-08-08T05:32:07.383Z,4.07
2022-08-08T05:34:37.282Z,3.87
2022-08-08T05:37:16.257Z,4.03
2022-08-08T05:39:48.300Z,4.17
2022-08-08T05:42:19.431Z,4.47
2022-08-08T05:44:53.915Z,4.10
2022-08-08T05:47:41.667Z,4.33
2022-08-08T05:50:16.455Z,4.10
2022-08-08T05:52:46.065Z,4.03
2022-08-08T05:55:14.901Z,4.27
2022-08-08T05:58:04.984Z,3.87
2022-08-08T06:00:34.190Z,4.10
2022-08-08T06:03:17.489Z,4.03
2022-08-08T06:05:52.739Z,4.17
2022-08-08T06:08:32.858Z,3.97
2022-08-08T06:11:03.119Z,4.03
2022-08-08T06:13:36.242Z,3.63
2022-08-08T06:16:12.516Z,4.43
2022-08-08T06:18:45.834Z,4.17
2022-08-08T06:21:28.162Z,4.07
2022-08-08T06:24:05.258Z,4.03
2022-08-08T06:26:52.326Z,4.53
2022-08-08T06:29:48.724Z,3.93
2022-08-08T06:32:15.340Z,4.70
2022-08-08T06:34:56.471Z,4.17
2022-08-08T06:37:36.923Z,4.03
2022-08-08T06:40:07.211Z,4.50
2022-08-08T06:42:39.053Z,4.30
2022-08-08T06:45:07.883Z,3.77
2022-08-08T06:47:51.841Z,4.30
2022-08-08T06:50:31.437Z,3.60
2022-08-08T06:53:01.343Z,4.17
2022-08-08T06:55:41.526Z,3.93
2022-08-08T06:58:10.401Z,4.17
2022-08-08T07:00:40.975Z,3.97
2022-08-08T07:03:30.716Z,3.67
2022-08-08T07:06:05.550Z,3.60
2022-08-08T07:08:36.683Z,3.73
2022-08-08T07:11:05.839Z,3.63
2022-08-08T07:13:39.280Z,3.37
2022-08-08T07:16:30.184Z,3.73
2022-08-08T07:19:05.525Z,3.50
2022-08-08T07:21:38.661Z,3.93
2022-08-08T07:24:14.896Z,3.23
2022-08-08T07:26:43.783Z,3.60
2022-08-08T07:29:55.389Z,3.13
2022-08-08T07:32:04.360Z,3.23
2022-08-08T07:34:35.945Z,3.83
2022-08-08T07:37:18.527Z,3.43
2022-08-08T07:39:57.690Z,3.10
2022-08-08T07:42:32.918Z,3.60
2022-08-08T07:45:02.064Z,2.90
2022-08-08T07:47:39.234Z,3.37
2022-08-08T07:50:08.561Z,4.37
2022-08-08T07:52:43.731Z,3.33
2022-08-08T07:55:13.465Z,2.77
2022-08-08T07:57:48.308Z,3.37
2022-08-08T08:00:17.888Z,3.53
2022-08-08T08:02:47.262Z,3.73
2022-08-08T08:05:21.036Z,3.70
2022-08-08T08:07:53.113Z,3.17
2022-08-08T08:10:30.263Z,2.50
2022-08-08T08:13:20.546Z,2.97
2022-08-08T08:15:57.958Z,2.67
2022-08-08T08:18:31.955Z,2.63
2022-08-08T08:21:01.585Z,2.33
2022-08-08T08:23:41.036Z,2.63
2022-08-08T08:26:09.850Z,2.40
2022-08-08T08:28:38.201Z,2.47
2022-08-08T08:31:07.090Z,2.50
2022-08-08T08:33:36.238Z,2.60
2022-08-08T08:36:20.242Z,3.03
2022-08-08T08:38:51.131Z,2.93
2022-08-08T08:41:23.927Z,3.13
2022-08-08T08:44:13.965Z,2.90
2022-08-08T08:46:47.488Z,3.17
2022-08-08T08:49:30.674Z,2.60
2022-08-08T08:52:03.251Z,2.37
2022-08-08T08:54:34.181Z,2.93
2022-08-08T08:57:02.695Z,2.10
2022-08-08T09:00:00.244Z,2.40
2022-08-08T09:02:32.822Z,2.23
2022-08-08T09:05:01.541Z,2.20
2022-08-08T09:07:39.063Z,1.90
2022-08-08T09:10:20.623Z,1.97
2022-08-08T09:12:50.522Z,2.10
2022-08-08T09:15:41.333Z,1.80
2022-08-08T09:18:07.843Z,2.20
2022-08-08T09:22:02.631Z,1.70
2022-08-08T09:23:33.661Z,2.20
2022-08-08T09:26:12.612Z,1.70
2022-08-08T09:28:42.425Z,2.33
2022-08-08T09:31:13.938Z,2.23
2022-08-08T09:34:14.876Z,2.27
2022-08-08T09:36:31.042Z,1.50
2022-08-08T09:39:01.337Z,1.80
2022-08-08T09:41:54.856Z,2.00
2022-08-08T09:44:29.724Z,1.60
2022-08-08T09:47:05.172Z,2.27
2022-08-08T09:49:51.624Z,1.80
2022-08-08T09:52:59.414Z,1.70
2022-08-08T09:55:10.210Z,1.87
2022-08-08T09:57:55.850Z,1.27
2022-08-08T10:00:49.869Z,1.70
2022-08-08T10:03:14.949Z,1.40
2022-08-08T10:05:48.478Z,1.50
2022-08-08T10:08:18.400Z,1.10
2022-08-08T10:10:51.005Z,1.40
2022-08-08T10:13:26.072Z,1.33
2022-08-08T10:16:03.436Z,1.50
2022-08-08T10:18:33.518Z,1.30
2022-08-08T10:21:23.053Z,1.20
2022-08-08T10:23:57.744Z,1.30
2022-08-08T10:26:30.886Z,1.47
2022-08-08T10:29:04.591Z,1.23
2022-08-08T10:31:50.851Z,1.27
2022-08-08T10:34:21.051Z,1.30
2022-08-08T10:36:49.989Z,1.17
2022-08-08T10:39:19.763Z,1.43
2022-08-08T10:42:12.941Z,1.60
2022-08-08T10:44:45.816Z,1.30
2022-08-08T10:47:20.647Z,1.30
2022-08-08T10:50:01.298Z,1.23
2022-08-08T10:52:32.193Z,1.40
2022-08-08T10:55:06.405Z,1.30
2022-08-08T10:57:49.921Z,1.60
2022-08-08T11:00:25.745Z,1.20
2022-08-08T11:02:54.444Z,1.20
2022-08-08T11:05:23.434Z,1.33
2022-08-08T11:08:38.035Z,1.27
2022-08-08T11:10:41.305Z,1.40
2022-08-08T11:13:29.809Z,1.50
2022-08-08T11:16:11.375Z,1.30
2022-08-08T11:18:40.147Z,1.30
2022-08-08T11:21:10.264Z,1.33
2022-08-08T11:23:39.435Z,1.30
2022-08-08T11:26:07.887Z,1.40
2022-08-08T11:28:38.835Z,1.20
2022-08-08T11:31:09.875Z,1.20
2022-08-08T11:33:52.800Z,1.50
2022-08-08T11:36:27.861Z,1.50
2022-08-08T11:38:57.798Z,2.80
2022-08-08T11:41:27.729Z,2.40
2022-08-08T11:44:00.884Z,1.80
2022-08-08T11:46:32.662Z,2.20
2022-08-08T11:49:04.287Z,1.50
2022-08-08T11:51:39.605Z,1.43
2022-08-08T11:54:31.902Z,1.10
2022-08-08T11:56:58.493Z,1.40
2022-08-08T12:00:00.175Z,1.20
2022-08-08T12:02:39.938Z,1.10
2022-08-08T12:05:13.168Z,1.33
2022-08-08T12:07:45.853Z,1.23
2022-08-08T12:10:18.143Z,1.30
2022-08-08T12:12:48.091Z,0.90
2022-08-08T12:15:27.776Z,1.10
2022-08-08T12:17:57.828Z,0.90
2022-08-08T12:20:38.566Z,0.90
2022-08-08T12:23:13.729Z,1.10
2022-08-08T12:25:44.959Z,0.80
2022-08-08T12:28:23.932Z,1.30
2022-08-08T12:30:55.291Z,0.97
2022-08-08T12:33:37.497Z,0.87
2022-08-08T12:36:16.534Z,0.90
2022-08-08T12:38:50.325Z,0.80
2022-08-08T12:41:35.392Z,0.70
2022-08-08T12:44:30.080Z,0.90
2022-08-08T12:47:02.838Z,0.93
2022-08-08T12:49:43.949Z,1.07
2022-08-08T12:52:28.612Z,0.90
2022-08-08T12:55:09.108Z,0.90
2022-08-08T12:57:38.318Z,1.00
2022-08-08T13:00:34.025Z,0.90
2022-08-08T13:03:07.714Z,1.20
2022-08-08T13:06:03.552Z,0.90
2022-08-08T13:08:36.271Z,1.00
2022-08-08T13:11:08.640Z,0.83
2022-08-08T13:13:38.814Z,1.00
2022-08-08T13:16:30.068Z,0.90
2022-08-08T13:19:01.765Z,0.90
2022-08-08T13:21:52.979Z,1.00
2022-08-08T13:24:42.181Z,1.17
2022-08-08T13:27:14.949Z,0.90
2022-08-08T13:29:50.601Z,1.10
2022-08-08T13:32:20.959Z,1.23
2022-08-08T13:34:52.720Z,1.20
2022-08-08T13:37:28.016Z,1.00
2022-08-08T13:40:17.640Z,1.37
2022-08-08T13:42:55.186Z,1.47
2022-08-08T13:45:24.014Z,0.90
2022-08-08T13:47:58.178Z,1.10
2022-08-08T13:50:36.585Z,0.90
2022-08-08T13:53:24.510Z,0.90
2022-08-08T13:55:58.404Z,0.83
2022-08-08T13:58:29.057Z,1.00
2022-08-08T14:00:57.688Z,1.07
2022-08-08T14:03:53.223Z,0.93
2022-08-08T14:06:20.564Z,1.03
2022-08-08T14:09:24.655Z,1.10
2022-08-08T14:11:54.512Z,0.90
2022-08-08T14:14:26.312Z,0.80
2022-08-08T14:16:57.363Z,1.00
2022-08-08T14:19:57.676Z,1.00
2022-08-08T14:22:22.304Z,1.17
2022-08-08T14:24:52.577Z,0.80
2022-08-08T14:27:27.046Z,0.80
2022-08-08T14:29:58.046Z,0.83
2022-08-08T14:32:29.497Z,1.13
2022-08-08T14:34:59.921Z,1.03
2022-08-08T14:37:57.353Z,0.87
2022-08-08T14:40:24.014Z,1.00
2022-08-08T14:42:55.043Z,0.90
2022-08-08T14:45:29.347Z,0.80
2022-08-08T14:48:16.599Z,1.07
2022-08-08T14:50:54.483Z,0.90
2022-08-08T14:53:27.987Z,0.87
2022-08-08T14:56:01.954Z,0.90
2022-08-08T14:58:30.852Z,0.87
2022-08-08T15:00:59.208Z,0.97
2022-08-08T15:03:29.335Z,0.90
2022-08-08T15:06:07.092Z,0.97
2022-08-08T15:08:39.899Z,0.90
2022-08-08T15:11:24.959Z,1.00
2022-08-08T15:14:01.109Z,0.80
2022-08-08T15:16:34.586Z,0.97
2022-08-08T15:19:03.849Z,0.90
2022-08-08T15:21:33.211Z,1.00
2022-08-08T15:24:01.659Z,1.03
2022-08-08T15:26:32.978Z,1.10
2022-08-08T15:29:01.578Z,1.17
2022-08-08T15:32:03.740Z,1.20
2022-08-08T15:34:31.862Z,1.30
2022-08-08T15:37:02.229Z,1.10
2022-08-08T15:39:38.575Z,1.10
2022-08-08T15:42:17.999Z,1.10
2022-08-08T15:44:58.475Z,1.10
2022-08-08T15:47:26.841Z,1.57
2022-08-08T15:49:55.359Z,1.10
2022-08-08T15:52:26.693Z,1.07
2022-08-08T15:54:55.178Z,1.10
2022-08-08T15:57:24.980Z,1.57
2022-08-08T16:00:06.512Z,1.40
2022-08-08T16:02:50.986Z,2.67
2022-08-08T16:05:21.475Z,2.00
2022-08-08T16:07:58.387Z,1.43
2022-08-08T16:13:27.454Z,1.60
2022-08-08T16:13:30.357Z,1.60
2022-08-08T16:16:09.387Z,1.10
2022-08-08T16:18:56.537Z,1.03
2022-08-08T16:21:29.321Z,1.10
2022-08-08T16:23:57.857Z,1.10
2022-08-08T16:26:33.900Z,1.10
2022-08-08T16:29:08.246Z,0.97
2022-08-08T16:31:40.360Z,1.20
2022-08-08T16:34:08.991Z,1.07
2022-08-08T16:36:37.935Z,1.17
2022-08-08T16:39:09.899Z,1.10
2022-08-08T16:42:01.272Z,1.60
2022-08-08T16:44:33.673Z,1.00
2022-08-08T16:47:17.840Z,1.40
2022-08-08T16:49:50.188Z,1.23
2022-08-08T16:55:06.465Z,1.30
2022-08-08T16:55:33.764Z,1.00
2022-08-08T16:58:14.085Z,1.30
2022-08-08T17:00:48.931Z,1.50
2022-08-08T17:03:24.539Z,1.30
2022-08-08T17:06:03.545Z,1.30
2022-08-08T17:08:32.243Z,1.10
2022-08-08T17:11:11.053Z,1.00
2022-08-08T17:13:50.021Z,1.23
2022-08-08T17:16:29.775Z,1.47
2022-08-08T17:19:03.347Z,1.73
2022-08-08T17:21:41.347Z,1.50
2022-08-08T17:24:10.624Z,1.40
2022-08-08T17:26:57.951Z,1.20
2022-08-08T17:29:27.182Z,1.50
2022-08-08T17:32:00.295Z,1.47
2022-08-08T17:34:53.070Z,1.60
2022-08-08T17:37:19.136Z,1.70
2022-08-08T17:40:10.401Z,1.33
2022-08-08T17:42:36.748Z,1.73
2022-08-08T17:45:06.263Z,1.27
2022-08-08T17:47:40.534Z,1.50
2022-08-08T17:50:10.287Z,1.67
2022-08-08T17:52:43.122Z,1.63
2022-08-08T17:56:04.714Z,1.40
2022-08-08T17:58:02.071Z,1.30
2022-08-08T18:00:31.903Z,1.80
2022-08-08T18:03:08.378Z,1.90
2022-08-08T18:05:48.148Z,1.60
2022-08-08T18:08:25.185Z,1.50
2022-08-08T18:11:06.428Z,1.40
2022-08-08T18:13:41.935Z,1.53
2022-08-08T18:16:11.558Z,1.60
2022-08-08T18:18:52.439Z,1.60
2022-08-08T18:21:34.446Z,1.47
2022-08-08T18:24:04.452Z,1.63
2022-08-08T18:26:33.787Z,1.77
2022-08-08T18:29:05.976Z,1.40
2022-08-08T18:31:34.586Z,1.60
2022-08-08T18:34:25.047Z,1.80
2022-08-08T18:36:56.317Z,1.70
2022-08-08T18:39:27.730Z,2.27
2022-08-08T18:42:03.319Z,1.93
2022-08-08T18:44:33.162Z,1.60
2022-08-08T18:47:09.387Z,1.73
2022-08-08T18:49:57.236Z,1.90
2022-08-08T18:52:36.790Z,1.80
2022-08-08T18:55:11.561Z,2.17
2022-08-08T18:57:42.045Z,1.90
2022-08-08T19:00:16.422Z,1.97
2022-08-08T19:02:55.273Z,1.90
2022-08-08T19:05:37.371Z,1.90
2022-08-08T19:08:25.198Z,1.93
2022-08-08T19:10:59.232Z,1.73
2022-08-08T19:13:52.930Z,1.70
2022-08-08T19:16:23.654Z,1.53
2022-08-08T19:19:01.908Z,1.60
2022-08-08T19:21:49.421Z,1.70
2022-08-08T19:24:42.189Z,1.67
2022-08-08T19:27:07.680Z,1.90
2022-08-08T19:29:42.161Z,1.60
2022-08-08T19:32:23.188Z,1.70
2022-08-08T19:34:55.048Z,1.90
2022-08-08T19:37:43.436Z,2.20
2022-08-08T19:40:30.895Z,1.97
2022-08-08T19:43:11.613Z,2.50
2022-08-08T19:45:59.809Z,1.83
2022-08-08T19:48:32.255Z,2.00
2022-08-08T19:51:01.546Z,1.97
2022-08-08T19:53:51.358Z,2.10
2022-08-08T19:56:25.831Z,2.30
2022-08-08T19:59:13.925Z,2.33
2022-08-08T20:02:01.544Z,2.57
2022-08-08T20:04:33.971Z,2.30
2022-08-08T20:07:05.416Z,2.40
2022-08-08T20:09:55.926Z,2.50
2022-08-08T20:12:35.479Z,2.40
2022-08-08T20:15:17.380Z,2.60
2022-08-08T20:17:46.657Z,2.30
2022-08-08T20:20:28.195Z,2.20
2022-08-08T20:23:04.174Z,2.47
2022-08-08T20:25:43.481Z,2.30
2022-08-08T20:28:19.965Z,2.50
2022-08-08T20:30:56.620Z,2.80
2022-08-08T20:33:29.211Z,3.07
2022-08-08T20:36:17.676Z,2.40
2022-08-08T20:38:51.069Z,2.70
2022-08-08T20:41:20.996Z,2.80
2022-08-08T20:43:50.256Z,2.20
2022-08-08T20:46:20.248Z,2.93
2022-08-08T20:48:52.099Z,2.07
2022-08-08T20:51:21.142Z,2.00
2022-08-08T20:54:00.726Z,2.07
2022-08-08T20:56:35.379Z,2.43
2022-08-08T20:59:12.357Z,2.20
2022-08-08T21:02:06.651Z,2.30
2022-08-08T21:04:30.709Z,2.23
2022-08-08T21:07:08.379Z,2.60
2022-08-08T21:10:08.128Z,2.70
2022-08-08T21:12:46.075Z,2.10
2022-08-08T21:15:16.462Z,1.87
2022-08-08T21:18:03.924Z,1.60
2022-08-08T21:20:34.522Z,1.90
2022-08-08T21:23:03.277Z,1.93
2022-08-08T21:25:36.071Z,1.90
2022-08-08T21:28:15.120Z,1.93
2022-08-08T21:30:52.098Z,1.90
2022-08-08T21:33:21.291Z,1.80
2022-08-08T21:36:19.184Z,2.00
2022-08-08T21:38:38.101Z,2.00
2022-08-08T21:41:06.700Z,1.80
2022-08-08T21:43:37.963Z,1.67
2022-08-08T21:48:07.944Z,1.90
2022-08-08T21:48:56.342Z,1.73
2022-08-08T21:54:17.925Z,1.50
2022-08-08T21:54:23.308Z,1.63
2022-08-08T21:57:04.749Z,1.43
2022-08-08T22:00:01.699Z,1.80
2022-08-08T22:02:24.045Z,1.57
2022-08-08T22:04:53.557Z,1.50
2022-08-08T22:07:26.060Z,1.67
2022-08-08T22:10:03.324Z,1.73
2022-08-08T22:12:38.865Z,1.80
2022-08-08T22:15:10.582Z,1.80
2022-08-08T22:17:41.409Z,1.73
2022-08-08T22:20:23.475Z,1.83
2022-08-08T22:22:53.017Z,1.80
2022-08-08T22:25:25.681Z,1.60
2022-08-08T22:28:04.283Z,1.60
2022-08-08T22:30:50.878Z,1.50
2022-08-08T22:34:11.988Z,2.10
2022-08-08T22:36:12.388Z,2.07
2022-08-08T22:38:48.297Z,1.70
2022-08-08T22:41:21.770Z,2.00
2022-08-08T22:44:02.530Z,1.90
2022-08-08T22:46:39.673Z,2.00
2022-08-08T22:49:09.027Z,2.20
2022-08-08T22:51:42.778Z,2.07
2022-08-08T22:54:30.569Z,1.83
2022-08-08T22:57:11.341Z,2.23
2022-08-08T22:59:58.608Z,1.63
2022-08-08T23:02:29.669Z,2.20
2022-08-08T23:05:02.233Z,2.10
2022-08-08T23:07:57.454Z,2.10
2022-08-08T23:10:25.600Z,1.93
2022-08-08T23:12:56.154Z,1.90
2022-08-08T23:16:39.672Z,1.77
2022-08-08T23:18:14.864Z,2.07
2022-08-08T23:20:43.865Z,1.97
2022-08-08T23:23:12.769Z,1.83
2022-08-08T23:25:48.357Z,2.10
2022-08-08T23:28:18.016Z,2.07
2022-08-08T23:30:47.957Z,1.97
2022-08-08T23:33:21.347Z,1.60
2022-08-08T23:36:08.669Z,2.00
2022-08-08T23:38:41.829Z,2.07
2022-08-08T23:41:24.599Z,2.37
2022-08-08T23:43:56.575Z,2.23
2022-08-08T23:49:00.922Z,2.00
2022-08-08T23:49:18.658Z,1.90
2022-08-08T23:52:07.296Z,2.30
2022-08-08T23:54:41.224Z,2.10
2022-08-08T23:57:15.339Z,2.20
